Time;durP1;ratioP1;P1;durP2;ratioP2;P2;SDS_P1;SDS_P2;PMS_P1;PMS_P2;Temp;Humidity;BMP_temperature;BMP_pressure;BME280_temperature;BME280_humidity;BME280_pressure;Samples;Min_cycle;Max_cycle;Signal;HPM_P1;HPM_P2
2021/12/21 00:00:54;;;;;;;1.77;0.40;;;;;;;-2.80;76.03;98829.55;1804250;78;21259;-54
2021/12/21 00:03:21;;;;;;;1.37;0.53;;;;;;;-2.79;76.12;98829.98;1810909;78;20977;-54
2021/12/21 00:05:47;;;;;;;1.10;0.50;;;;;;;-2.76;76.26;98833.92;1802954;77;21581;-55
2021/12/21 00:08:16;;;;;;;2.43;0.50;;;;;;;-2.77;76.11;98838.31;1769683;79;22140;-54
2021/12/21 00:10:44;;;;;;;0.90;0.50;;;;;;;-2.80;76.04;98838.77;1773595;78;21030;-56
2021/12/21 00:16:13;;;;;;;0.93;0.40;;;;;;;-2.86;76.09;98841.03;1777025;79;21047;-54
2021/12/21 00:18:38;;;;;;;0.62;0.45;;;;;;;-2.89;76.14;98850.27;1778335;79;21233;-55
2021/12/21 00:23:41;;;;;;;1.00;0.40;;;;;;;-2.93;76.20;98857.78;1785358;79;21481;-55
2021/12/21 00:26:10;;;;;;;1.07;0.67;;;;;;;-2.93;76.01;98869.62;1784582;78;21054;-55
2021/12/21 00:28:50;;;;;;;0.70;0.37;;;;;;;-3.00;76.08;98860.48;1774214;78;21132;-56
2021/12/21 00:31:06;;;;;;;1.33;0.30;;;;;;;-3.05;76.21;98871.91;1778119;79;21691;-55
2021/12/21 00:33:33;;;;;;;0.70;0.40;;;;;;;-3.08;76.36;98873.27;1772213;79;22213;-54
2021/12/21 00:35:59;;;;;;;2.00;0.30;;;;;;;-3.10;76.41;98880.30;1779043;79;22198;-55
2021/12/21 00:38:26;;;;;;;0.77;0.40;;;;;;;-3.13;76.49;98886.02;1781953;79;21064;-55
2021/12/21 00:40:52;;;;;;;0.60;0.20;;;;;;;-3.19;76.58;98900.11;1780508;79;21088;-54
2021/12/21 00:43:18;;;;;;;0.30;0.10;;;;;;;-3.32;76.28;98905.47;1780929;79;21138;-54
2021/12/21 00:47:47;;;;;;;2.40;0.10;;;;;;;-3.58;77.26;98900.36;1774109;78;27136;-54
2021/12/21 00:50:16;;;;;;;0.87;0.10;;;;;;;-3.74;77.28;98904.80;1752723;80;22208;-54
2021/12/21 00:52:38;;;;;;;0.60;0.10;;;;;;;-3.84;76.27;98914.52;1709089;81;21100;-55
2021/12/21 00:55:07;;;;;;;0.20;0.10;;;;;;;-3.95;75.85;98912.80;1707534;81;21063;-54
2021/12/21 00:57:34;;;;;;;0.13;0.10;;;;;;;-3.99;75.90;98912.36;1700446;81;21012;-55
2021/12/21 01:00:00;;;;;;;0.30;0.10;;;;;;;-4.06;75.25;98915.89;1687160;83;21322;-54
2021/12/21 01:02:27;;;;;;;0.40;0.20;;;;;;;-4.09;75.27;98922.06;1670257;83;20973;-55
2021/12/21 01:04:56;;;;;;;1.63;0.20;;;;;;;-4.12;74.10;98931.26;1675914;83;21514;-55
2021/12/21 01:07:29;;;;;;;0.90;0.20;;;;;;;-4.16;74.72;98930.81;1677440;83;21021;-55
2021/12/21 01:10:40;;;;;;;0.50;0.20;;;;;;;-4.20;74.37;98940.48;1671860;83;21037;-55
2021/12/21 01:12:50;;;;;;;1.07;0.30;;;;;;;-4.27;74.17;98943.13;1670776;83;21121;-54
2021/12/21 01:18:19;;;;;;;0.10;0.10;;;;;;;-4.38;74.20;98947.08;1700428;81;21129;-55
2021/12/21 01:20:36;;;;;;;2.22;0.30;;;;;;;-4.40;74.26;98938.76;1671379;83;24900;-55
2021/12/21 01:23:25;;;;;;;0.37;0.20;;;;;;;-4.43;74.08;98944.03;1678289;83;21033;-55
2021/12/21 01:25:47;;;;;;;2.20;0.20;;;;;;;-4.44;73.84;98947.53;1670229;83;21113;-54
2021/12/21 01:31:06;;;;;;;1.03;0.10;;;;;;;-4.46;73.94;98953.22;1628937;83;22017;-54
2021/12/21 01:35:54;;;;;;;0.90;0.10;;;;;;;-4.39;73.84;98958.90;1672149;83;21154;-55
2021/12/21 01:38:31;;;;;;;0.40;0.20;;;;;;;-4.40;73.92;98960.65;1677864;83;21447;-55
2021/12/21 01:40:57;;;;;;;1.07;0.17;;;;;;;-4.39;73.94;98964.16;1678550;83;20975;-55
2021/12/21 01:51:16;;;;;;;0.30;0.20;;;;;;;-4.45;73.83;98972.93;1666373;83;22449;-55
2021/12/21 01:53:43;;;;;;;1.60;0.20;;;;;;;-4.46;73.99;98975.11;1658522;83;21083;-54
2021/12/21 01:56:09;;;;;;;0.30;0.20;;;;;;;-4.43;74.04;98978.19;1658742;83;21148;-55
2021/12/21 01:58:37;;;;;;;0.83;0.17;;;;;;;-4.42;73.98;98983.88;1660124;83;21086;-54
2021/12/21 02:01:05;;;;;;;0.30;0.20;;;;;;;-4.40;74.06;98991.30;1662012;83;21570;-54
2021/12/21 02:03:34;;;;;;;1.07;0.17;;;;;;;-4.36;74.11;98994.37;1655580;83;21121;-54
2021/12/21 02:06:00;;;;;;;0.40;0.20;;;;;;;-4.38;73.81;98991.73;1656570;83;21558;-54
2021/12/21 02:08:27;;;;;;;0.20;0.10;;;;;;;-4.37;73.94;98996.56;1657319;83;22442;-54
2021/12/21 02:10:53;;;;;;;0.40;0.20;;;;;;;-4.34;74.04;99002.66;1664473;83;21084;-54
2021/12/21 02:13:20;;;;;;;0.27;0.10;;;;;;;-4.31;73.73;99004.42;1675232;83;21526;-54
2021/12/21 02:15:47;;;;;;;0.10;0.00;;;;;;;-4.30;73.79;99019.32;1644497;85;21860;-54
2021/12/21 02:18:35;;;;;;;0.30;0.10;;;;;;;-4.29;73.71;99010.56;1666812;83;21104;-54
2021/12/21 02:21:19;;;;;;;0.27;0.10;;;;;;;-4.30;73.66;99014.94;1686592;82;21556;-53
2021/12/21 02:23:34;;;;;;;0.57;0.10;;;;;;;-4.31;73.16;99018.87;1670226;83;21172;-54
2021/12/21 02:26:10;;;;;;;0.30;0.17;;;;;;;-4.34;73.36;99017.12;1685117;82;21412;-54
2021/12/21 02:30:54;;;;;;;0.90;0.10;;;;;;;-4.32;73.23;99019.31;1659792;83;21070;-53
2021/12/21 02:33:22;;;;;;;0.47;0.13;;;;;;;-4.30;73.33;99031.14;1661338;83;21158;-53
2021/12/21 02:35:49;;;;;;;0.50;0.20;;;;;;;-4.30;73.31;99032.45;1667796;83;20881;-53
2021/12/21 02:38:15;;;;;;;0.50;0.10;;;;;;;-4.28;73.38;99035.97;1665876;83;21087;-53
2021/12/21 02:40:42;;;;;;;0.30;0.10;;;;;;;-4.25;73.21;99046.45;1657232;83;21173;-52
2021/12/21 02:43:10;;;;;;;0.63;0.20;;;;;;;-4.25;73.17;99038.57;1658251;83;21074;-53
2021/12/21 02:45:38;;;;;;;0.50;0.10;;;;;;;-4.24;73.07;99037.70;1660303;83;21125;-53
2021/12/21 02:48:05;;;;;;;4.40;0.20;;;;;;;-4.26;72.95;99037.73;1658451;84;21161;-52
2021/12/21 02:50:31;;;;;;;0.23;0.10;;;;;;;-4.29;72.83;99034.21;1659202;83;20956;-53
2021/12/21 02:52:59;;;;;;;2.37;0.20;;;;;;;-4.33;72.92;99037.27;1657255;84;20971;-52
2021/12/21 02:55:26;;;;;;;0.30;0.10;;;;;;;-4.33;72.80;99037.70;1712699;81;21345;-53
2021/12/21 02:57:53;;;;;;;0.40;0.10;;;;;;;-4.35;72.83;99053.49;1712212;81;21093;-53
2021/12/21 03:00:19;;;;;;;0.50;0.20;;;;;;;-4.36;72.91;99050.42;1713379;81;21090;-52
2021/12/21 03:02:45;;;;;;;0.57;0.23;;;;;;;-4.34;72.96;99053.05;1714537;81;21042;-52
2021/12/21 03:05:12;;;;;;;0.60;0.20;;;;;;;-4.33;72.96;99058.28;1708631;81;21085;-52
2021/12/21 03:10:23;;;;;;;0.50;0.20;;;;;;;-4.29;72.87;99063.11;1708395;81;21704;-53
2021/12/21 03:15:16;;;;;;;1.23;0.40;;;;;;;-4.26;72.89;99072.33;1709000;81;21054;-53
2021/12/21 03:17:42;;;;;;;0.53;0.27;;;;;;;-4.28;72.79;99068.38;1709047;81;21524;-52
2021/12/21 03:20:10;;;;;;;0.40;0.20;;;;;;;-4.28;72.90;99071.44;1706800;81;21113;-52
2021/12/21 03:22:36;;;;;;;0.40;0.20;;;;;;;-4.28;72.84;99075.38;1715913;81;21117;-53
2021/12/21 03:25:03;;;;;;;0.73;0.20;;;;;;;-4.28;72.91;99076.70;1709847;81;21081;-53
2021/12/21 03:27:31;;;;;;;0.50;0.20;;;;;;;-4.28;72.93;99078.89;1708709;81;21109;-53
2021/12/21 03:29:57;;;;;;;0.50;0.20;;;;;;;-4.28;72.87;99087.20;1704968;81;21049;-52
2021/12/21 03:32:23;;;;;;;0.70;0.70;;;;;;;-4.26;72.86;99081.08;1708869;81;21061;-52
2021/12/21 03:34:50;;;;;;;0.60;0.30;;;;;;;-4.25;72.86;99084.55;1709242;81;22137;-53
2021/12/21 03:37:16;;;;;;;0.93;0.30;;;;;;;-4.23;72.87;99074.92;1706971;81;21040;-53
2021/12/21 03:39:44;;;;;;;1.97;0.20;;;;;;;-4.21;72.82;99080.63;1715810;81;21398;-52
2021/12/21 03:42:12;;;;;;;0.60;0.30;;;;;;;-4.21;72.77;99080.63;1710150;81;21105;-53
2021/12/21 03:44:39;;;;;;;0.70;0.20;;;;;;;-4.21;72.85;99087.20;1710372;81;20974;-53
2021/12/21 03:47:08;;;;;;;0.80;0.40;;;;;;;-4.18;72.89;99084.14;1710399;81;21085;-52
2021/12/21 03:52:16;;;;;;;1.00;0.60;;;;;;;-4.13;72.80;99093.77;1709302;81;20959;-51
2021/12/21 03:54:46;;;;;;;0.60;0.40;;;;;;;-4.11;72.85;99091.14;1712178;81;20872;-51
2021/12/21 03:57:13;;;;;;;0.60;0.30;;;;;;;-4.08;72.82;99085.42;1716052;81;21061;-52
2021/12/21 03:59:41;;;;;;;0.60;0.40;;;;;;;-4.06;72.60;99086.31;1708565;81;22032;-51
2021/12/21 04:02:08;;;;;;;2.27;0.30;;;;;;;-4.10;72.58;99081.95;1706508;81;21114;-51
2021/12/21 04:04:35;;;;;;;1.03;0.30;;;;;;;-4.11;72.62;99082.82;1712855;81;20903;-51
2021/12/21 04:07:02;;;;;;;0.73;0.30;;;;;;;-4.11;72.60;99085.45;1712734;81;21042;-51
2021/12/21 04:09:30;;;;;;;1.93;0.30;;;;;;;-4.10;72.63;99094.22;1708309;81;20912;-51
2021/12/21 04:11:56;;;;;;;0.47;0.27;;;;;;;-4.08;72.60;99093.78;1710832;81;21034;-51
2021/12/21 04:14:22;;;;;;;1.10;0.30;;;;;;;-4.08;72.49;99090.69;1711091;81;20947;-53
2021/12/21 04:16:51;;;;;;;0.53;0.30;;;;;;;-4.06;72.51;99092.88;1715165;81;20895;-51
2021/12/21 04:19:18;;;;;;;0.40;0.20;;;;;;;-4.03;72.41;99094.64;1710955;81;21432;-51
2021/12/21 04:21:45;;;;;;;0.30;0.20;;;;;;;-4.05;72.25;99099.02;1712036;81;21438;-53
2021/12/21 04:24:12;;;;;;;0.60;0.30;;;;;;;-4.07;72.19;99103.39;1710246;81;21100;-50
2021/12/21 04:26:38;;;;;;;0.70;0.20;;;;;;;-4.11;72.12;99111.73;1719642;81;20959;-50
2021/12/21 04:29:04;;;;;;;0.70;0.30;;;;;;;-4.15;72.19;99109.97;1721736;81;20912;-50
2021/12/21 04:31:31;;;;;;;0.53;0.30;;;;;;;-4.13;72.28;99114.80;1713992;81;20971;-50
2021/12/21 04:33:58;;;;;;;0.40;0.20;;;;;;;-4.12;72.35;99111.30;1708865;81;20971;-51
2021/12/21 04:36:25;;;;;;;1.13;0.30;;;;;;;-4.09;72.28;99115.69;1713384;81;21105;-50
2021/12/21 04:38:52;;;;;;;0.43;0.20;;;;;;;-4.08;72.24;99110.88;1712253;81;20951;-50
2021/12/21 04:41:23;;;;;;;0.63;0.30;;;;;;;-4.09;72.27;99119.19;1712535;81;20932;-50
2021/12/21 04:43:51;;;;;;;0.70;0.30;;;;;;;-4.06;72.30;99113.03;1713774;81;20962;-51
2021/12/21 04:46:18;;;;;;;1.40;0.30;;;;;;;-4.08;72.24;99119.59;1713650;81;20962;-51
2021/12/21 04:48:44;;;;;;;0.57;0.27;;;;;;;-4.10;72.45;99121.81;1722601;80;22610;-50
2021/12/21 04:51:10;;;;;;;0.77;0.40;;;;;;;-4.12;72.52;99122.24;1725082;80;21572;-50
2021/12/21 04:53:37;;;;;;;0.93;0.23;;;;;;;-4.16;72.66;99127.05;1725031;80;21477;-50
2021/12/21 04:56:04;;;;;;;1.50;0.40;;;;;;;-4.19;72.65;99121.38;1724478;80;20977;-50
2021/12/21 04:58:30;;;;;;;0.70;0.57;;;;;;;-4.23;72.87;99132.30;1725015;80;20998;-51
2021/12/21 05:00:57;;;;;;;0.57;0.30;;;;;;;-4.23;73.02;99132.30;1725841;80;21093;-50
2021/12/21 05:03:25;;;;;;;0.60;0.30;;;;;;;-4.27;73.18;99129.69;1723915;80;20970;-50
2021/12/21 05:05:52;;;;;;;3.90;0.30;;;;;;;-4.28;73.35;99135.81;1726224;80;20906;-50
2021/12/21 05:08:25;;;;;;;0.93;0.33;;;;;;;-4.27;73.43;99134.95;1725783;80;21045;-51
2021/12/21 05:10:56;;;;;;;0.57;0.30;;;;;;;-4.28;73.43;99134.50;1723413;80;21092;-51
2021/12/21 05:13:28;;;;;;;0.33;0.20;;;;;;;-4.28;73.32;99122.67;1718300;80;21148;-51
2021/12/21 05:15:55;;;;;;;0.53;0.30;;;;;;;-4.31;72.95;99141.94;1718773;80;21772;-50
2021/12/21 05:18:21;;;;;;;0.40;0.13;;;;;;;-4.36;72.56;99136.24;1724805;80;21037;-50
2021/12/21 05:20:47;;;;;;;1.37;0.30;;;;;;;-4.41;72.09;99141.47;1722464;80;21594;-49
2021/12/21 05:23:14;;;;;;;0.70;0.30;;;;;;;-4.49;71.85;99158.09;1725930;80;21101;-49
2021/12/21 05:25:41;;;;;;;0.80;0.20;;;;;;;-4.60;71.87;99158.97;1722511;80;21478;-49
2021/12/21 05:28:11;;;;;;;0.93;0.20;;;;;;;-4.65;72.07;99158.50;1726753;80;21383;-50
2021/12/21 05:30:38;;;;;;;0.83;0.20;;;;;;;-4.74;72.33;99158.03;1732101;80;21104;-49
2021/12/21 05:33:05;;;;;;;0.40;0.17;;;;;;;-4.83;72.57;99164.56;1726038;80;21135;-50
2021/12/21 05:35:32;;;;;;;0.60;0.20;;;;;;;-4.89;72.71;99168.92;1719764;80;21050;-50
2021/12/21 05:38:03;;;;;;;1.63;0.10;;;;;;;-4.96;72.75;99180.72;1729457;80;21129;-49
2021/12/21 05:40:43;;;;;;;0.23;0.10;;;;;;;-5.05;72.50;99178.48;1726600;80;21055;-50
2021/12/21 05:43:10;;;;;;;0.37;0.20;;;;;;;-5.14;72.66;99183.69;1685593;82;21069;-50
2021/12/21 05:45:37;;;;;;;0.60;0.17;;;;;;;-5.19;72.84;99185.42;1733643;80;21114;-50
2021/12/21 05:48:05;;;;;;;2.10;0.20;;;;;;;-5.19;72.98;99186.73;1700293;82;21090;-50
2021/12/21 05:50:31;;;;;;;0.37;0.10;;;;;;;-5.15;73.05;99185.43;1684823;83;22051;-50
2021/12/21 05:52:58;;;;;;;0.47;0.20;;;;;;;-5.12;73.09;99187.20;1677689;82;21645;-50
2021/12/21 05:55:24;;;;;;;0.40;0.20;;;;;;;-5.08;73.17;99191.58;1680573;82;21705;-50
2021/12/21 05:57:51;;;;;;;0.30;0.13;;;;;;;-5.03;73.21;99196.44;1676695;82;21050;-50
2021/12/21 06:00:21;;;;;;;0.50;0.20;;;;;;;-5.03;73.02;99193.37;1677748;82;21069;-50
2021/12/21 06:02:47;;;;;;;0.47;0.20;;;;;;;-5.12;73.61;99205.14;1680192;82;21195;-50
2021/12/21 06:05:14;;;;;;;3.90;0.20;;;;;;;-5.19;74.34;99205.09;1679615;82;21152;-50
2021/12/21 06:07:42;;;;;;;1.03;0.20;;;;;;;-5.21;74.86;99212.08;1678063;82;21147;-50
2021/12/21 06:10:16;;;;;;;0.30;0.20;;;;;;;-5.21;75.00;99217.33;1676065;83;21195;-51
2021/12/21 06:15:38;;;;;;;3.35;0.40;;;;;;;-5.35;74.15;99229.91;1698161;82;21145;-52
2021/12/21 06:26:04;;;;;;;0.57;0.30;;;;;;;-5.43;74.47;99238.16;1675136;83;22260;-50
2021/12/21 06:28:31;;;;;;;0.80;0.37;;;;;;;-5.50;74.81;99238.98;1677051;83;22197;-50
2021/12/21 06:30:58;;;;;;;3.67;0.40;;;;;;;-5.52;75.04;99240.70;1677726;83;21156;-50
2021/12/21 06:33:24;;;;;;;0.80;0.40;;;;;;;-5.56;74.92;99254.68;1679640;83;22341;-51
2021/12/21 06:35:51;;;;;;;0.87;0.40;;;;;;;-5.64;74.82;99259.41;1676401;83;22573;-50
2021/12/21 06:38:18;;;;;;;1.10;0.40;;;;;;;-5.74;74.73;99260.64;1671093;83;21133;-49
2021/12/21 06:40:44;;;;;;;0.80;0.50;;;;;;;-5.77;74.35;99261.92;1671746;83;22978;-50
2021/12/21 06:43:14;;;;;;;1.57;0.80;;;;;;;-5.86;74.41;99267.50;1674379;83;21049;-51
2021/12/21 06:45:56;;;;;;;0.90;0.40;;;;;;;-5.95;74.13;99284.48;1679323;83;20959;-51
2021/12/21 06:53:36;;;;;;;1.27;0.30;;;;;;;-6.30;74.16;99277.16;1662439;83;22147;-50
2021/12/21 06:56:03;;;;;;;1.80;0.30;;;;;;;-6.38;74.15;99288.41;1662564;83;20987;-51
2021/12/21 06:58:31;;;;;;;0.80;0.30;;;;;;;-6.47;73.75;99298.35;1661512;83;20982;-50
2021/12/21 07:00:59;;;;;;;0.93;0.30;;;;;;;-6.48;74.01;99297.02;1657652;83;21500;-48
2021/12/21 07:03:26;;;;;;;0.90;0.40;;;;;;;-6.56;74.05;99305.66;1658980;83;21817;-50
2021/12/21 07:05:53;;;;;;;3.73;0.30;;;;;;;-6.64;74.03;99308.61;1656653;83;21769;-49
2021/12/21 07:08:25;;;;;;;0.90;0.30;;;;;;;-6.68;74.22;99321.63;1660766;83;21073;-49
2021/12/21 07:11:09;;;;;;;1.00;0.40;;;;;;;-6.72;74.11;99324.62;1660159;83;21587;-49
2021/12/21 07:18:55;;;;;;;0.77;0.37;;;;;;;-6.93;73.71;99343.53;1669280;83;21604;-51
2021/12/21 07:21:21;;;;;;;0.63;0.20;;;;;;;-7.00;72.94;99343.00;1657743;83;21114;-50
2021/12/21 07:23:50;;;;;;;1.00;0.20;;;;;;;-7.09;70.76;99337.63;1659882;83;21055;-51
2021/12/21 07:26:17;;;;;;;0.50;0.20;;;;;;;-7.21;69.08;99347.00;1665763;83;21122;-50
2021/12/21 07:28:44;;;;;;;1.00;0.20;;;;;;;-7.36;68.32;99349.83;1658697;83;21099;-49
2021/12/21 07:31:10;;;;;;;0.50;0.20;;;;;;;-7.48;67.35;99356.16;1660941;83;21138;-51
2021/12/21 07:33:37;;;;;;;0.70;0.20;;;;;;;-7.55;67.52;99353.41;1654140;83;21097;-51
2021/12/21 07:36:06;;;;;;;1.90;0.30;;;;;;;-7.60;69.54;99358.58;1659545;83;21041;-49
2021/12/21 07:38:33;;;;;;;0.90;0.30;;;;;;;-7.60;70.19;99359.00;1660643;83;21378;-49
2021/12/21 07:41:02;;;;;;;1.37;0.40;;;;;;;-7.59;68.89;99359.45;1657203;83;21090;-51
2021/12/21 07:48:10;;;;;;;2.20;0.20;;;;;;;-7.73;66.68;99368.34;1777322;78;24013;-50
2021/12/21 07:50:38;;;;;;;1.27;0.50;;;;;;;-7.84;68.46;99381.66;1748690;80;20876;-50
2021/12/21 07:53:05;;;;;;;0.40;0.20;;;;;;;-7.88;66.67;99390.27;1742875;80;21790;-49
2021/12/21 07:55:31;;;;;;;1.10;0.30;;;;;;;-7.96;67.42;99388.82;1746319;80;20946;-50
2021/12/21 07:57:58;;;;;;;0.50;0.20;;;;;;;-7.98;67.42;99388.33;1731415;80;20871;-48
2021/12/21 08:00:24;;;;;;;1.27;0.23;;;;;;;-7.97;67.82;99387.48;1729563;80;21377;-49
2021/12/21 08:02:53;;;;;;;0.80;0.30;;;;;;;-7.94;67.84;99396.69;1735181;80;20935;-48
2021/12/21 08:05:20;;;;;;;1.77;0.40;;;;;;;-7.92;67.48;99393.27;1735652;80;22227;-47
2021/12/21 08:07:53;;;;;;;0.83;0.40;;;;;;;-7.87;67.71;99405.09;1731425;82;20958;-49
2021/12/21 08:10:26;;;;;;;1.70;0.30;;;;;;;-7.87;66.83;99399.87;1697508;83;20961;-50
2021/12/21 08:12:49;;;;;;;2.10;0.40;;;;;;;-7.91;66.09;99400.69;1668869;85;20911;-49
2021/12/21 08:15:17;;;;;;;0.93;0.30;;;;;;;-7.95;64.69;99399.73;1671130;85;21497;-49
2021/12/21 08:17:43;;;;;;;0.80;0.40;;;;;;;-7.99;62.75;99410.95;1701281;84;21782;-49
2021/12/21 08:20:10;;;;;;;0.43;0.20;;;;;;;-8.05;62.56;99412.14;1693706;83;21573;-48
2021/12/21 08:22:36;;;;;;;0.77;0.20;;;;;;;-8.10;62.65;99406.84;1692375;84;21004;-49
2021/12/21 08:25:06;;;;;;;0.70;0.20;;;;;;;-8.11;61.48;99414.64;1689488;84;21557;-49
2021/12/21 08:27:33;;;;;;;0.60;0.20;;;;;;;-8.20;61.35;99415.77;1695444;83;21633;-49
2021/12/21 08:29:59;;;;;;;0.80;0.40;;;;;;;-8.25;61.54;99422.63;1694912;83;22288;-47
2021/12/21 08:32:26;;;;;;;0.53;0.20;;;;;;;-8.26;61.67;99421.75;1691013;84;21077;-51
2021/12/21 08:34:52;;;;;;;0.90;0.30;;;;;;;-8.29;61.85;99424.28;1695088;83;21037;-47
2021/12/21 08:37:18;;;;;;;0.80;0.30;;;;;;;-8.28;61.84;99430.39;1691110;83;21072;-48
2021/12/21 08:39:45;;;;;;;1.50;0.40;;;;;;;-8.31;61.93;99431.65;1693864;83;21053;-51
2021/12/21 08:42:13;;;;;;;2.37;0.50;;;;;;;-8.31;62.47;99426.00;1692179;83;22617;-49
2021/12/21 08:44:41;;;;;;;1.07;0.40;;;;;;;-8.26;62.64;99430.00;1702457;83;20973;-47
2021/12/21 08:47:07;;;;;;;2.77;0.47;;;;;;;-8.24;62.65;99436.11;1700894;83;21025;-49
2021/12/21 08:49:33;;;;;;;1.20;0.40;;;;;;;-8.16;63.07;99441.06;1701859;83;21119;-51
2021/12/21 08:52:00;;;;;;;0.73;0.30;;;;;;;-8.11;63.03;99444.25;1710242;83;21131;-48
2021/12/21 08:54:26;;;;;;;1.60;0.40;;;;;;;-8.11;62.79;99435.53;1681365;84;21868;-48
2021/12/21 08:56:52;;;;;;;2.87;0.40;;;;;;;-8.13;63.21;99438.53;1687964;83;21569;-48
2021/12/21 08:59:20;;;;;;;1.20;0.37;;;;;;;-8.09;63.20;99445.17;1672361;84;21587;-49
2021/12/21 09:01:46;;;;;;;2.40;0.40;;;;;;;-8.07;63.08;99440.84;1681391;83;21052;-49
2021/12/21 09:04:15;;;;;;;0.97;0.40;;;;;;;-8.02;63.12;99439.64;1683429;83;21090;-48
2021/12/21 09:06:41;;;;;;;3.57;0.70;;;;;;;-7.96;63.03;99447.59;1670152;84;21625;-48
2021/12/21 09:09:07;;;;;;;4.50;0.70;;;;;;;-7.90;62.72;99448.12;1685769;83;21056;-48
2021/12/21 09:11:35;;;;;;;3.20;0.80;;;;;;;-7.89;62.47;99445.98;1687343;84;21100;-48
2021/12/21 09:14:02;;;;;;;3.07;0.83;;;;;;;-7.92;62.49;99445.52;1682575;83;21044;-50
2021/12/21 09:16:28;;;;;;;3.10;0.60;;;;;;;-7.96;62.20;99454.13;1683300;83;21044;-50
2021/12/21 09:18:55;;;;;;;3.73;0.70;;;;;;;-8.02;62.10;99457.92;1668144;84;21074;-51
2021/12/21 09:21:22;;;;;;;3.60;1.00;;;;;;;-8.11;62.05;99456.01;1683738;83;21469;-48
2021/12/21 09:23:48;;;;;;;5.90;1.20;;;;;;;-8.16;62.51;99461.53;1702711;83;21430;-50
2021/12/21 09:26:14;;;;;;;4.13;1.20;;;;;;;-8.16;62.64;99457.63;1703349;83;21519;-50
2021/12/21 09:28:42;;;;;;;1.53;0.70;;;;;;;-8.10;62.88;99459.50;1700824;83;21306;-48
2021/12/21 09:31:08;;;;;;;3.63;0.60;;;;;;;-8.05;62.24;99455.24;1704065;83;22789;-48
2021/12/21 09:33:34;;;;;;;2.03;0.73;;;;;;;-8.13;61.38;99468.14;1683572;83;21252;-50
2021/12/21 09:36:01;;;;;;;0.60;0.40;;;;;;;-8.22;60.98;99463.14;1702133;83;22165;-50
2021/12/21 09:38:28;;;;;;;1.70;0.83;;;;;;;-8.30;60.64;99472.12;1690925;83;21145;-49
2021/12/21 09:40:55;;;;;;;1.23;0.40;;;;;;;-8.39;60.30;99468.45;1671226;84;21081;-51
2021/12/21 09:43:21;;;;;;;1.27;0.40;;;;;;;-8.48;59.86;99463.91;1685986;83;21148;-48
2021/12/21 09:45:50;;;;;;;0.80;0.40;;;;;;;-8.58;59.79;99462.81;1682101;83;21045;-51
2021/12/21 09:48:16;;;;;;;0.60;0.30;;;;;;;-8.62;59.46;99487.52;1657891;84;21512;-48
2021/12/21 09:50:42;;;;;;;1.00;0.40;;;;;;;-8.66;59.64;99464.79;1674093;84;21102;-50
2021/12/21 09:53:09;;;;;;;0.57;0.30;;;;;;;-8.65;60.04;99472.66;1674943;84;21161;-49
2021/12/21 09:55:35;;;;;;;1.77;0.50;;;;;;;-8.56;60.51;99475.48;1674322;83;21160;-49
2021/12/21 09:58:02;;;;;;;3.37;0.60;;;;;;;-8.41;60.45;99484.08;1679196;84;21128;-48
2021/12/21 10:00:32;;;;;;;4.07;0.87;;;;;;;-8.35;59.78;99482.05;1675642;84;21817;-48
2021/12/21 10:03:04;;;;;;;1.73;0.40;;;;;;;-8.33;60.45;99476.41;1687763;84;20883;-48
2021/12/21 10:05:35;;;;;;;1.83;0.60;;;;;;;-8.28;59.78;99478.27;1684522;84;20899;-48
2021/12/21 10:08:13;;;;;;;1.50;0.50;;;;;;;-8.27;60.15;99478.73;1729068;82;21093;-49
2021/12/21 10:10:44;;;;;;;1.57;0.57;;;;;;;-8.16;60.41;99486.77;1710093;82;21097;-48
2021/12/21 10:13:21;;;;;;;2.10;0.80;;;;;;;-8.07;60.49;99485.66;1680686;84;20911;-48
2021/12/21 10:16:00;;;;;;;8.03;0.60;;;;;;;-7.97;60.42;99486.74;1690100;84;21045;-49
2021/12/21 10:18:31;;;;;;;1.60;0.40;;;;;;;-7.89;60.41;99480.83;1717011;82;21484;-49
2021/12/21 10:21:00;;;;;;;0.70;0.40;;;;;;;-7.89;59.01;99486.05;1713654;82;21214;-49
2021/12/21 10:23:34;;;;;;;2.07;0.70;;;;;;;-7.96;59.28;99488.51;1716778;82;20915;-49
2021/12/21 10:26:08;;;;;;;1.42;0.50;;;;;;;-8.05;58.81;99491.39;1721760;81;20951;-48
2021/12/21 10:28:45;;;;;;;1.95;0.40;;;;;;;-8.11;59.03;99492.57;1721673;82;28075;-48
2021/12/21 10:31:32;;;;;;;0.90;0.40;;;;;;;-8.14;58.75;99496.83;1679997;84;20994;-52
2021/12/21 10:34:00;;;;;;;0.87;0.40;;;;;;;-8.15;59.58;99505.09;1677633;84;21021;-50
2021/12/21 10:36:27;;;;;;;0.87;0.37;;;;;;;-8.09;59.33;99505.66;1675924;84;20927;-51
2021/12/21 10:38:57;;;;;;;0.70;0.23;;;;;;;-8.09;59.56;99501.75;1679768;84;20954;-50
2021/12/21 10:41:41;;;;;;;0.80;0.30;;;;;;;-8.02;59.88;99502.33;1677932;84;20995;-48
2021/12/21 10:44:10;;;;;;;;;;;;;;;-7.97;59.22;99501.11;1727053;82;20919;-50
2021/12/21 10:46:40;;;;;;;0.60;0.30;;;;;;;-7.99;59.19;99510.21;1715768;82;21158;-51
2021/12/21 10:49:21;;;;;;;1.17;0.30;;;;;;;-8.02;59.05;99502.33;1714692;82;20903;-48
2021/12/21 10:51:58;;;;;;;1.13;0.30;;;;;;;-8.02;59.30;99501.02;1718722;82;20924;-50
2021/12/21 10:54:29;;;;;;;0.80;0.30;;;;;;;-7.98;59.26;99497.61;1720125;82;20900;-51
2021/12/21 10:57:04;;;;;;;0.77;0.30;;;;;;;-7.91;59.46;99499.95;1717341;82;20860;-51
2021/12/21 10:59:32;;;;;;;0.80;0.30;;;;;;;-7.86;59.27;99499.19;1716725;82;21156;-50
2021/12/21 11:02:11;;;;;;;0.50;0.30;;;;;;;-7.86;58.47;99504.41;1717837;82;20911;-51
2021/12/21 11:04:38;;;;;;;4.57;0.30;;;;;;;-7.86;58.70;99504.84;1717468;82;20947;-51
2021/12/21 11:07:32;;;;;;;2.77;0.30;;;;;;;-7.85;58.33;99503.57;1718096;82;21213;-49
2021/12/21 11:10:17;;;;;;;2.37;0.20;;;;;;;-7.83;58.29;99497.95;1717126;82;21368;-48
2021/12/21 11:12:50;;;;;;;1.67;0.30;;;;;;;-7.76;58.48;99495.04;1709389;82;21144;-49
2021/12/21 11:15:20;;;;;;;1.07;0.20;;;;;;;-7.70;58.55;99489.92;1720340;82;20891;-50
2021/12/21 11:17:47;;;;;;;1.07;0.30;;;;;;;-7.64;58.71;99497.45;1712195;82;21106;-51
2021/12/21 11:20:15;;;;;;;1.43;0.40;;;;;;;-7.58;58.22;99506.28;1716338;82;21013;-49
2021/12/21 11:22:44;;;;;;;0.83;0.40;;;;;;;-7.59;57.67;99509.33;1716320;82;21033;-51
2021/12/21 11:25:11;;;;;;;2.13;0.30;;;;;;;-7.61;56.62;99499.68;1717108;82;21078;-49
2021/12/21 11:27:40;;;;;;;0.60;0.30;;;;;;;-7.69;56.86;99512.59;1716902;82;20963;-49
2021/12/21 11:30:20;;;;;;;1.60;0.40;;;;;;;-7.73;57.62;99502.91;1718588;82;20994;-50
2021/12/21 11:32:49;;;;;;;0.70;0.30;;;;;;;-7.71;57.08;99498.61;1709725;82;21082;-48
2021/12/21 11:37:46;;;;;;;0.80;0.27;;;;;;;-7.65;57.31;99522.25;1719561;82;21155;-49
2021/12/21 11:40:16;;;;;;;2.77;0.20;;;;;;;-7.65;56.46;99511.79;1719854;82;20943;-49
2021/12/21 11:43:16;;;;;;;0.60;0.30;;;;;;;-7.70;56.08;99518.67;1718769;82;21117;-50
2021/12/21 11:45:56;;;;;;;0.60;0.30;;;;;;;-7.83;54.36;99520.59;1712825;82;21729;-50
2021/12/21 11:48:34;;;;;;;1.20;0.30;;;;;;;-8.08;55.09;99529.17;1718151;82;20909;-49
2021/12/21 11:51:07;;;;;;;1.33;0.40;;;;;;;-8.24;55.00;99533.61;1726798;82;21550;-48
2021/12/21 11:53:33;;;;;;;2.63;0.67;;;;;;;-8.38;55.66;99550.72;1731070;82;21523;-49
2021/12/21 11:56:02;;;;;;;4.43;0.63;;;;;;;-8.44;56.26;99550.17;1728746;80;21038;-49
2021/12/21 11:58:34;;;;;;;5.27;1.23;;;;;;;-8.43;56.65;99553.66;1729711;82;21179;-50
2021/12/21 12:01:25;;;;;;;1.13;0.30;;;;;;;-8.37;56.93;99556.41;1728833;82;20965;-49
2021/12/21 12:04:04;;;;;;;0.83;0.30;;;;;;;-8.30;56.57;99566.11;1728082;82;22213;-49
2021/12/21 12:06:50;;;;;;;0.80;0.23;;;;;;;-8.37;55.72;99562.05;1732102;82;21208;-48
2021/12/21 12:09:32;;;;;;;2.72;0.65;;;;;;;-8.49;55.68;99565.23;1729674;82;21503;-48
2021/12/21 12:12:11;;;;;;;1.70;0.40;;;;;;;-8.56;55.56;99580.30;1738789;82;20911;-49
2021/12/21 12:14:41;;;;;;;0.87;0.27;;;;;;;-8.59;55.72;99577.62;1730680;82;21108;-50
2021/12/21 12:17:16;;;;;;;1.10;0.20;;;;;;;-8.59;56.40;99581.09;1728245;82;22160;-48
2021/12/21 12:20:01;;;;;;;0.80;0.30;;;;;;;-8.51;56.26;99582.61;1733297;82;21093;-49
2021/12/21 12:22:38;;;;;;;0.80;0.40;;;;;;;-8.50;55.77;99596.98;1719607;82;21129;-48
2021/12/21 12:25:06;;;;;;;1.00;0.40;;;;;;;-8.53;55.54;99593.43;1725631;82;21108;-49
2021/12/21 12:27:33;;;;;;;0.70;0.37;;;;;;;-8.56;55.86;99604.66;1725579;82;21093;-49
2021/12/21 12:30:11;;;;;;;0.50;0.20;;;;;;;-8.57;55.40;99606.81;1731674;82;21111;-50
2021/12/21 12:32:45;;;;;;;0.80;0.30;;;;;;;-8.59;55.38;99611.55;1730278;82;21061;-49
2021/12/21 12:35:19;;;;;;;0.90;0.30;;;;;;;-8.64;55.31;99620.55;1724414;82;21503;-49
2021/12/21 12:38:00;;;;;;;0.25;0.10;;;;;;;-8.68;55.52;99614.81;1730401;82;21135;-48
2021/12/21 12:40:32;;;;;;;0.70;0.30;;;;;;;-8.67;55.91;99617.85;1726747;82;21638;-49
2021/12/21 12:43:09;;;;;;;0.77;0.20;;;;;;;-8.65;55.90;99617.48;1728823;82;21604;-49
2021/12/21 12:45:39;;;;;;;1.00;0.37;;;;;;;-8.67;55.87;99619.16;1729013;82;21053;-48